If you wish to contribute or participate in the discussions about articles you are invited to join SKYbrary as a registered user

 Actions

Grant County International Airport

From SKYbrary Wiki

KMWH
Airport
ICAO: KMWH – IATA: MWH
Summary
Name Grant County International Airport
Region North America
Territory United States US.gif
Location Moses Lake, Washington
Serving Moses Lake
Elevation 362.407 m
1,189 ft
1,189 ft362.407 m
Coordinates 47° 12' 16.50" N, 119° 18' 59.50" W
Runways
Designator Length Width Surface ROPS
4/22 3048 m10,000 ft
30 m98.425 ft
PEM yes/yes
9/27 1067 m3,500.656 ft
27 m88.583 ft
CON yes/yes
14L/32R 4116 m13,503.937 ft
61 m200.131 ft
PEM yes/yes
14R/32L 895 m2,936.352 ft
23 m75.459 ft
CON yes/yes
18/36 1008 m3,307.087 ft
23 m75.459 ft
ASP yes/yes


METAR
Observation KMWH 180852Z AUTO 00000KT 10SM OVC045 14/10 A2978 RMK AO2 SLP085 T01390100 55000
Station Moses Lake, Grant County Airport
Date/Time 18 September 2019 08:52:00
Wind direction
Wind speed 00 kts
Lowest cloud amount overcast
Temperature 13.9°C
Dew point 10°C
Humidity 77%
QNH hPa
Weather condition n/a

Grant County International Airport is a public use airport located 9.7 km5.238 nm
9,700 m
31,824.147 ft
northwest of the central business district of Moses Lake, a city in Grant County, Washington, United States.

Maps

Terrain

Loading map...

Airport Layout

Loading map...


Accidents & Serious Incidents at or in vicinity of KMWH

None on SKYbrary